Time;durP1;ratioP1;P1;durP2;ratioP2;P2;SDS_P1;SDS_P2;PMS_P1;PMS_P2;Temp;Humidity;BMP_temperature;BMP_pressure;BME280_temperature;BME280_humidity;BME280_pressure;Samples;Min_cycle;Max_cycle;Signal;HPM_P1;HPM_P2
2023/09/14 00:00:55;;;;;;;5.47;1.52;;;17.50;99.90;;;;;;5000204;28;20243;-72
2023/09/14 00:03:20;;;;;;;4.28;1.70;;;17.50;99.90;;;;;;4997011;28;20239;-72
2023/09/14 00:05:49;;;;;;;2.92;1.60;;;17.50;99.90;;;;;;5000889;28;20221;-72
2023/09/14 00:08:16;;;;;;;4.05;1.65;;;17.50;99.90;;;;;;4995476;28;20209;-72
2023/09/14 00:10:42;;;;;;;3.53;1.80;;;17.50;99.90;;;;;;5000918;28;20344;-72
2023/09/14 00:13:09;;;;;;;5.00;1.73;;;17.50;99.90;;;;;;5002951;28;20683;-71
2023/09/14 00:15:35;;;;;;;3.13;1.65;;;17.50;99.90;;;;;;4998869;28;20651;-70
2023/09/14 00:18:02;;;;;;;5.03;1.80;;;17.50;99.90;;;;;;5002584;28;20225;-72
2023/09/14 00:20:32;;;;;;;5.97;1.60;;;17.50;99.90;;;;;;5000279;28;20228;-72
2023/09/14 00:22:59;;;;;;;3.00;1.38;;;17.50;99.90;;;;;;5002281;28;20689;-72
2023/09/14 00:25:25;;;;;;;3.80;1.60;;;17.40;99.90;;;;;;5002260;28;20213;-72
2023/09/14 00:27:52;;;;;;;4.22;1.50;;;17.30;99.90;;;;;;5000640;28;20182;-72
2023/09/14 00:30:20;;;;;;;2.22;1.38;;;17.30;99.90;;;;;;5002552;28;20324;-71
2023/09/14 00:32:47;;;;;;;3.75;1.58;;;17.30;99.90;;;;;;5000045;28;20209;-72
2023/09/14 00:35:13;;;;;;;3.17;1.50;;;17.30;99.90;;;;;;4997969;28;20281;-70
2023/09/14 00:37:40;;;;;;;4.63;1.83;;;17.30;99.90;;;;;;4998332;28;20204;-72
2023/09/14 00:40:07;;;;;;;5.10;1.65;;;17.30;99.90;;;;;;4999796;28;20248;-70
2023/09/14 00:42:38;;;;;;;4.03;1.88;;;17.30;99.90;;;;;;5003427;28;20592;-71
2023/09/14 00:45:06;;;;;;;2.22;1.35;;;17.20;99.90;;;;;;4998549;28;20242;-72
2023/09/14 00:47:32;;;;;;;3.60;1.70;;;17.20;99.90;;;;;;4998887;28;20237;-71
2023/09/14 00:49:58;;;;;;;2.85;1.60;;;17.20;99.90;;;;;;5000862;28;20241;-70
2023/09/14 00:52:24;;;;;;;1.98;1.55;;;17.20;99.90;;;;;;5002888;28;20259;-72
2023/09/14 00:54:50;;;;;;;4.22;2.05;;;17.20;99.90;;;;;;4996319;28;20173;-72
2023/09/14 00:57:17;;;;;;;5.43;1.83;;;17.10;99.90;;;;;;5003868;28;20225;-72
2023/09/14 00:59:45;;;;;;;4.18;1.85;;;17.00;99.90;;;;;;4995106;28;20202;-73
2023/09/14 01:02:11;;;;;;;4.97;1.67;;;17.00;99.90;;;;;;4998626;28;20225;-71
2023/09/14 01:04:37;;;;;;;5.13;1.65;;;17.00;99.90;;;;;;4999809;28;20209;-72
2023/09/14 01:07:03;;;;;;;4.32;1.65;;;17.00;99.90;;;;;;5000275;28;20193;-71
2023/09/14 01:09:30;;;;;;;4.57;1.67;;;17.00;99.90;;;;;;4998232;28;20239;-71
2023/09/14 01:11:56;;;;;;;6.30;1.67;;;16.90;99.90;;;;;;5000173;28;20206;-72
2023/09/14 01:14:35;;;;;;;2.65;1.42;;;17.00;99.90;;;;;;5000444;28;20212;-72
2023/09/14 01:17:38;;;;;;;4.97;1.58;;;17.00;99.90;;;;;;4998780;28;20360;-72
2023/09/14 01:20:16;;;;;;;5.25;2.05;;;17.00;99.90;;;;;;4996097;28;20232;-71
2023/09/14 01:23:02;;;;;;;3.80;1.65;;;17.00;99.90;;;;;;5008166;28;20208;-72
2023/09/14 01:25:40;;;;;;;6.35;1.98;;;17.00;99.90;;;;;;4998274;28;20246;-72
2023/09/14 01:28:11;;;;;;;2.58;1.58;;;16.80;99.90;;;;;;4999147;28;20217;-72
2023/09/14 01:30:39;;;;;;;6.10;2.05;;;16.70;99.90;;;;;;5000060;28;20197;-72
2023/09/14 01:33:15;;;;;;;5.05;1.65;;;16.60;99.90;;;;;;4999265;28;20209;-72
2023/09/14 01:36:14;;;;;;;4.70;1.83;;;16.40;99.90;;;;;;4998660;28;20255;-72
2023/09/14 01:38:41;;;;;;;2.50;1.50;;;16.40;99.90;;;;;;5000307;28;20653;-72
2023/09/14 01:41:07;;;;;;;3.05;1.70;;;16.40;99.90;;;;;;5000095;28;20215;-72
2023/09/14 01:43:34;;;;;;;4.57;1.90;;;16.40;99.90;;;;;;4999970;28;20201;-72
2023/09/14 01:46:02;;;;;;;4.63;2.33;;;16.40;99.90;;;;;;4997488;28;20304;-72
2023/09/14 01:48:28;;;;;;;5.93;1.95;;;16.30;99.90;;;;;;5001952;28;20252;-72
2023/09/14 01:50:54;;;;;;;5.88;2.05;;;16.20;99.90;;;;;;4996736;28;20292;-72
2023/09/14 01:53:20;;;;;;;2.83;1.52;;;16.20;99.90;;;;;;4999308;28;20355;-72
2023/09/14 01:55:45;;;;;;;6.40;2.00;;;16.30;99.90;;;;;;5001003;28;20216;-72
2023/09/14 01:58:12;;;;;;;4.63;1.88;;;16.20;99.90;;;;;;5000123;28;20213;-71
2023/09/14 02:00:37;;;;;;;4.75;2.25;;;16.20;99.90;;;;;;5001601;28;20201;-71
2023/09/14 02:03:04;;;;;;;4.97;1.80;;;16.10;99.90;;;;;;4998959;28;20872;-72
2023/09/14 02:05:29;;;;;;;6.95;1.83;;;16.00;99.90;;;;;;5002344;28;20603;-72
2023/09/14 02:07:55;;;;;;;5.95;1.70;;;16.00;99.90;;;;;;4994125;28;20237;-71
2023/09/14 02:10:22;;;;;;;4.28;1.80;;;16.00;99.90;;;;;;4996829;28;20228;-72
2023/09/14 02:12:48;;;;;;;4.93;2.28;;;15.90;99.90;;;;;;4998712;28;20264;-71
2023/09/14 02:15:15;;;;;;;3.67;1.85;;;15.90;99.90;;;;;;5002264;28;20183;-72
2023/09/14 02:17:40;;;;;;;2.70;2.05;;;15.90;99.90;;;;;;4998196;28;20210;-72
2023/09/14 02:20:08;;;;;;;4.32;1.85;;;15.90;99.90;;;;;;5000684;28;20209;-72
2023/09/14 02:22:34;;;;;;;3.67;1.73;;;15.90;99.90;;;;;;4997017;28;20219;-71
2023/09/14 02:24:59;;;;;;;5.10;1.83;;;15.80;99.90;;;;;;4995512;28;20728;-72
2023/09/14 02:27:25;;;;;;;6.05;2.20;;;15.70;99.90;;;;;;4984770;28;20232;-72
2023/09/14 02:29:54;;;;;;;4.28;2.30;;;15.70;99.90;;;;;;5000140;28;20205;-73
2023/09/14 02:32:20;;;;;;;2.50;1.58;;;15.70;99.90;;;;;;5000141;28;20225;-71
2023/09/14 02:34:48;;;;;;;5.13;2.05;;;15.70;99.90;;;;;;4997381;28;20236;-72
2023/09/14 02:37:14;;;;;;;4.30;1.92;;;15.70;99.90;;;;;;4997182;28;20225;-72
2023/09/14 02:39:39;;;;;;;4.13;1.83;;;15.60;99.90;;;;;;5000050;28;20208;-72
2023/09/14 02:42:05;;;;;;;3.80;1.80;;;15.60;99.90;;;;;;4998662;28;20578;-71
2023/09/14 02:44:31;;;;;;;3.63;1.73;;;15.60;99.90;;;;;;5001592;28;20197;-71
2023/09/14 02:46:56;;;;;;;4.43;1.92;;;15.60;99.90;;;;;;4996589;28;20226;-71
2023/09/14 02:49:22;;;;;;;3.67;1.77;;;15.60;99.90;;;;;;4998404;28;20593;-72
2023/09/14 02:51:48;;;;;;;4.45;1.83;;;15.50;99.90;;;;;;4997198;28;20231;-71
2023/09/14 02:54:14;;;;;;;3.60;1.73;;;15.50;99.90;;;;;;5001278;28;20178;-70
2023/09/14 02:56:41;;;;;;;2.75;1.77;;;15.40;99.90;;;;;;4999599;28;20202;-72
2023/09/14 02:59:07;;;;;;;4.95;1.73;;;15.40;99.90;;;;;;4997952;28;20209;-72
2023/09/14 03:01:32;;;;;;;2.90;1.90;;;15.40;99.90;;;;;;4995136;28;20202;-72
2023/09/14 03:03:58;;;;;;;11.20;2.53;;;15.30;99.90;;;;;;5001582;28;20829;-71
2023/09/14 03:06:25;;;;;;;3.97;1.75;;;15.30;99.90;;;;;;5003709;28;20190;-71
2023/09/14 03:08:51;;;;;;;4.13;1.90;;;15.30;99.90;;;;;;4999166;28;20202;-68
2023/09/14 03:11:16;;;;;;;4.45;1.83;;;15.20;99.90;;;;;;5002394;28;20885;-71
2023/09/14 03:13:42;;;;;;;4.35;1.92;;;15.20;99.90;;;;;;5004203;28;20205;-71
2023/09/14 03:16:08;;;;;;;3.00;1.90;;;15.30;99.90;;;;;;5001749;28;20237;-72
2023/09/14 03:18:33;;;;;;;2.72;1.70;;;15.20;99.90;;;;;;5005459;28;20196;-72
2023/09/14 03:20:59;;;;;;;4.90;2.13;;;15.20;99.90;;;;;;4999532;28;20217;-72
2023/09/14 03:23:25;;;;;;;2.78;1.85;;;15.20;99.90;;;;;;5004089;28;20251;-72
2023/09/14 03:25:50;;;;;;;6.10;1.52;;;15.20;99.90;;;;;;5002347;28;20272;-71
2023/09/14 03:28:17;;;;;;;5.30;1.92;;;15.20;99.90;;;;;;5000059;28;20225;-71
2023/09/14 03:30:43;;;;;;;8.02;2.08;;;15.10;99.90;;;;;;5002937;28;20231;-72
2023/09/14 03:33:10;;;;;;;5.72;1.73;;;15.10;99.90;;;;;;5002563;28;20638;-72
2023/09/14 03:35:36;;;;;;;5.47;2.15;;;15.10;99.90;;;;;;5000762;28;20289;-72
2023/09/14 03:38:02;;;;;;;3.30;2.00;;;15.10;99.90;;;;;;5001073;28;20292;-71
2023/09/14 03:40:28;;;;;;;5.93;1.85;;;15.10;99.90;;;;;;5001998;28;20217;-71
2023/09/14 03:42:54;;;;;;;3.75;1.80;;;15.00;99.90;;;;;;5003567;28;20223;-70
2023/09/14 03:45:19;;;;;;;5.00;2.28;;;15.00;99.90;;;;;;5030499;22;20424;-68
2023/09/14 03:47:46;;;;;;;4.82;2.00;;;14.90;99.90;;;;;;5032024;28;20220;-68
2023/09/14 03:50:12;;;;;;;4.78;1.88;;;14.60;99.90;;;;;;5031639;28;20215;-69
2023/09/14 03:52:37;;;;;;;3.53;1.60;;;14.70;99.90;;;;;;5027837;28;20205;-69
2023/09/14 03:55:04;;;;;;;7.22;2.42;;;14.80;99.90;;;;;;5031583;28;20180;-68
2023/09/14 03:57:30;;;;;;;2.58;1.77;;;14.70;99.90;;;;;;5031797;28;20169;-69
2023/09/14 03:59:56;;;;;;;4.45;1.73;;;14.70;99.90;;;;;;5030199;28;20225;-68
2023/09/14 04:02:23;;;;;;;3.67;2.15;;;14.70;99.90;;;;;;5031596;28;20322;-68
2023/09/14 04:04:49;;;;;;;4.60;2.10;;;14.70;99.90;;;;;;5031994;28;20631;-69
2023/09/14 04:07:15;;;;;;;2.95;1.52;;;14.70;99.90;;;;;;5031475;28;20224;-68
2023/09/14 04:09:41;;;;;;;5.10;2.45;;;14.70;99.90;;;;;;5030766;28;20176;-68
2023/09/14 04:12:07;;;;;;;5.30;2.22;;;14.70;99.90;;;;;;5031357;28;20204;-68
2023/09/14 04:14:33;;;;;;;4.57;2.03;;;14.60;99.90;;;;;;5030456;28;20229;-69
2023/09/14 04:17:00;;;;;;;3.47;1.67;;;14.60;99.90;;;;;;5031188;28;20262;-68
2023/09/14 04:19:27;;;;;;;5.60;2.28;;;14.50;99.90;;;;;;5031088;28;20333;-69
2023/09/14 04:21:53;;;;;;;4.10;1.73;;;14.40;99.90;;;;;;5030331;28;20655;-69
2023/09/14 04:24:19;;;;;;;3.05;2.20;;;14.40;99.90;;;;;;5030192;28;20241;-69
2023/09/14 04:26:45;;;;;;;4.05;2.13;;;14.40;99.90;;;;;;5029571;28;20217;-69
2023/09/14 04:29:11;;;;;;;4.38;1.75;;;14.40;99.90;;;;;;5028849;28;20204;-68
2023/09/14 04:31:37;;;;;;;4.63;1.98;;;14.40;99.90;;;;;;5027754;28;20228;-69
2023/09/14 04:34:04;;;;;;;3.22;2.13;;;14.40;99.90;;;;;;5027284;28;20177;-69
2023/09/14 04:36:30;;;;;;;4.38;1.70;;;14.40;99.90;;;;;;5029290;28;20196;-69
2023/09/14 04:38:56;;;;;;;5.50;2.13;;;14.40;99.90;;;;;;5031100;28;20223;-68
2023/09/14 04:41:22;;;;;;;2.60;1.83;;;14.40;99.90;;;;;;5031150;28;20200;-69
2023/09/14 04:43:47;;;;;;;4.30;1.98;;;14.50;99.90;;;;;;5029898;28;20236;-69
2023/09/14 04:46:13;;;;;;;4.13;2.17;;;14.50;99.90;;;;;;5030718;28;20710;-69
2023/09/14 04:48:38;;;;;;;3.45;1.65;;;14.50;99.90;;;;;;5031645;28;20193;-69
2023/09/14 04:51:04;;;;;;;3.42;2.13;;;14.50;99.90;;;;;;5030928;28;20215;-69
2023/09/14 04:53:30;;;;;;;3.33;1.83;;;14.50;99.90;;;;;;5030966;28;20642;-68
2023/09/14 04:55:56;;;;;;;5.35;2.30;;;14.60;99.90;;;;;;5031029;28;20212;-69
2023/09/14 04:58:21;;;;;;;4.05;1.70;;;14.60;99.90;;;;;;5030497;28;20286;-68
2023/09/14 05:00:48;;;;;;;2.83;1.88;;;14.60;99.90;;;;;;5022832;28;20181;-69
2023/09/14 05:03:15;;;;;;;3.17;1.90;;;14.60;99.90;;;;;;5030729;28;20180;-68
2023/09/14 05:05:40;;;;;;;5.07;2.35;;;14.60;99.90;;;;;;5030545;28;20208;-69
2023/09/14 05:08:06;;;;;;;6.47;2.47;;;14.60;99.90;;;;;;5029391;28;20238;-68
2023/09/14 05:10:32;;;;;;;5.18;2.25;;;14.60;99.90;;;;;;5030389;28;20213;-69
2023/09/14 05:12:58;;;;;;;3.83;1.60;;;14.80;99.90;;;;;;5030930;28;20176;-70
2023/09/14 05:15:23;;;;;;;6.97;1.95;;;14.80;99.90;;;;;;5029664;28;20207;-68
2023/09/14 05:17:49;;;;;;;4.85;2.20;;;14.80;99.90;;;;;;5030318;28;20235;-69
2023/09/14 05:20:15;;;;;;;2.42;1.70;;;15.00;99.90;;;;;;5030010;28;20287;-68
2023/09/14 05:22:41;;;;;;;3.65;1.92;;;14.90;99.90;;;;;;5030447;28;20258;-69
2023/09/14 05:25:07;;;;;;;4.53;2.10;;;15.00;99.90;;;;;;5030079;28;20216;-68
2023/09/14 05:27:40;;;;;;;4.60;2.05;;;15.10;99.90;;;;;;5030789;28;20173;-68
2023/09/14 05:30:08;;;;;;;2.78;1.98;;;15.30;99.90;;;;;;5029868;28;20580;-68
2023/09/14 05:32:34;;;;;;;5.13;2.13;;;16.90;99.90;;;;;;5030764;28;20211;-69
2023/09/14 05:35:00;;;;;;;5.57;2.35;;;18.10;99.90;;;;;;5030140;28;20586;-69
2023/09/14 05:37:25;;;;;;;6.95;1.90;;;18.90;99.90;;;;;;5029800;28;20212;-69
2023/09/14 05:39:51;;;;;;;5.57;2.22;;;20.50;99.90;;;;;;5030155;28;20310;-68
2023/09/14 05:42:17;;;;;;;5.38;2.45;;;21.20;99.90;;;;;;5029137;28;20199;-68
2023/09/14 05:44:43;;;;;;;3.13;1.85;;;22.00;99.90;;;;;;5030402;28;20208;-68
2023/09/14 05:47:08;;;;;;;4.55;2.33;;;22.70;99.90;;;;;;5028358;28;20242;-68
2023/09/14 05:49:34;;;;;;;6.45;2.95;;;23.60;99.90;;;;;;5029680;28;20208;-68
2023/09/14 05:51:59;;;;;;;6.38;2.30;;;24.00;99.90;;;;;;5029989;28;20184;-68
2023/09/14 05:54:25;;;;;;;5.35;2.67;;;24.70;99.90;;;;;;5029934;28;20176;-68
2023/09/14 05:56:51;;;;;;;3.05;2.13;;;25.00;99.90;;;;;;5030172;28;20234;-68
2023/09/14 05:59:17;;;;;;;4.18;2.08;;;25.60;99.90;;;;;;5029132;28;20208;-68
2023/09/14 06:01:42;;;;;;;5.32;2.33;;;26.00;99.90;;;;;;5030018;28;20200;-68
2023/09/14 06:04:08;;;;;;;5.70;2.58;;;26.10;99.90;;;;;;5029620;28;20678;-68
2023/09/14 06:06:34;;;;;;;5.85;3.22;;;26.70;99.90;;;;;;5029052;28;20208;-68
2023/09/14 06:08:59;;;;;;;5.10;2.35;;;27.00;99.90;;;;;;5028384;28;20208;-68
2023/09/14 06:11:28;;;;;;;5.78;2.40;;;27.30;99.90;;;;;;5029670;28;20216;-68
2023/09/14 06:13:54;;;;;;;3.00;2.30;;;27.90;99.90;;;;;;5029495;28;20223;-68
2023/09/14 06:16:20;;;;;;;5.10;3.13;;;27.70;99.90;;;;;;5029749;28;20220;-68
2023/09/14 06:18:49;;;;;;;5.75;2.22;;;28.20;99.90;;;;;;5029414;28;20172;-68
2023/09/14 06:21:14;;;;;;;7.18;3.03;;;29.00;99.90;;;;;;5029715;28;20241;-67
2023/09/14 06:23:40;;;;;;;3.83;2.55;;;29.40;99.90;;;;;;5026545;28;20299;-67
2023/09/14 06:26:06;;;;;;;4.40;2.58;;;29.10;99.90;;;;;;5029803;28;20588;-68
2023/09/14 06:28:31;;;;;;;5.30;2.33;;;28.20;99.90;;;;;;5029101;28;20204;-68
2023/09/14 06:30:58;;;;;;;5.10;2.20;;;28.20;99.90;;;;;;5029521;28;20176;-68
2023/09/14 06:33:23;;;;;;;7.88;2.65;;;27.90;99.90;;;;;;5029863;28;20187;-68
2023/09/14 06:35:49;;;;;;;4.15;2.58;;;27.90;99.90;;;;;;5029704;28;20295;-68
2023/09/14 06:38:15;;;;;;;6.72;2.70;;;28.30;99.90;;;;;;5030097;28;20751;-67
2023/09/14 06:40:40;;;;;;;6.68;2.92;;;28.70;99.20;;;;;;5033142;28;20576;-68
2023/09/14 06:43:06;;;;;;;4.18;2.50;;;28.20;98.80;;;;;;5033300;28;20250;-68
2023/09/14 06:45:33;;;;;;;10.13;3.05;;;28.80;98.40;;;;;;5032877;28;20216;-67
2023/09/14 06:47:59;;;;;;;8.23;2.90;;;28.70;98.50;;;;;;5028778;28;20251;-68
2023/09/14 06:50:24;;;;;;;4.28;2.67;;;29.10;97.70;;;;;;5031677;28;20574;-68
2023/09/14 06:52:50;;;;;;;3.88;2.35;;;29.30;97.20;;;;;;5032369;28;20211;-69
2023/09/14 06:55:15;;;;;;;3.97;2.60;;;30.00;95.90;;;;;;5032576;28;20681;-68
2023/09/14 06:57:41;;;;;;;4.70;2.40;;;30.90;93.90;;;;;;5033625;28;20168;-68
2023/09/14 07:00:13;;;;;;;5.90;2.55;;;29.80;95.00;;;;;;5032749;28;20686;-68
2023/09/14 07:02:40;;;;;;;3.78;2.22;;;29.40;95.00;;;;;;5033163;28;20692;-69
2023/09/14 07:05:05;;;;;;;6.00;2.25;;;30.00;94.60;;;;;;5032938;28;20334;-69
2023/09/14 07:07:31;;;;;;;8.80;2.53;;;30.00;94.20;;;;;;5032977;28;20295;-68
2023/09/14 07:09:57;;;;;;;4.10;1.95;;;31.00;92.80;;;;;;5032953;28;20182;-69
2023/09/14 07:12:22;;;;;;;2.90;2.13;;;31.20;91.80;;;;;;5033261;28;20188;-69
2023/09/14 07:14:48;;;;;;;4.97;2.25;;;31.10;92.40;;;;;;5032910;28;20196;-69
2023/09/14 07:17:14;;;;;;;7.35;2.25;;;30.90;92.00;;;;;;5031856;28;20303;-67
2023/09/14 07:19:39;;;;;;;4.05;2.97;;;31.40;91.80;;;;;;5028490;28;20227;-69
2023/09/14 07:22:05;;;;;;;2.92;2.05;;;31.30;90.70;;;;;;5033001;28;20204;-68
2023/09/14 07:24:32;;;;;;;5.93;2.10;;;31.90;90.30;;;;;;5033190;28;20199;-69
2023/09/14 07:26:59;;;;;;;8.30;2.50;;;31.10;90.60;;;;;;5032595;28;20238;-68
2023/09/14 07:29:25;;;;;;;4.25;2.58;;;30.90;90.60;;;;;;5032065;28;20214;-68
2023/09/14 07:31:51;;;;;;;3.65;2.50;;;31.10;90.30;;;;;;5032579;28;20568;-68
2023/09/14 07:34:16;;;;;;;6.32;2.40;;;31.00;90.50;;;;;;5030877;28;20649;-68
2023/09/14 07:36:42;;;;;;;4.53;2.15;;;30.70;90.80;;;;;;5031850;28;20195;-68
2023/09/14 07:39:08;;;;;;;4.07;2.38;;;30.90;90.40;;;;;;5032164;28;20291;-69
2023/09/14 07:41:33;;;;;;;3.78;1.92;;;31.90;89.10;;;;;;5030659;28;20570;-69
2023/09/14 07:43:59;;;;;;;3.92;1.73;;;31.90;87.90;;;;;;5031989;28;20291;-68
2023/09/14 07:46:25;;;;;;;4.03;2.00;;;31.80;87.00;;;;;;5031890;28;20219;-68
2023/09/14 07:48:50;;;;;;;6.55;1.80;;;31.90;86.10;;;;;;5030635;28;20180;-69
2023/09/14 07:51:16;;;;;;;3.47;1.77;;;32.00;85.80;;;;;;5032698;28;20180;-68
2023/09/14 07:53:41;;;;;;;2.90;2.10;;;32.00;85.80;;;;;;5031688;28;20211;-68
2023/09/14 07:56:07;;;;;;;4.50;1.73;;;31.40;87.20;;;;;;5032029;28;20207;-68
2023/09/14 07:58:33;;;;;;;3.72;1.83;;;31.40;86.80;;;;;;5031398;28;20277;-67
2023/09/14 08:00:58;;;;;;;4.45;1.63;;;31.40;86.10;;;;;;5031731;28;20273;-67
2023/09/14 08:03:25;;;;;;;3.00;1.63;;;31.20;86.00;;;;;;5030752;28;20177;-68
2023/09/14 08:05:52;;;;;;;2.38;1.88;;;31.00;86.60;;;;;;5030354;28;20212;-69
2023/09/14 08:08:18;;;;;;;4.07;1.48;;;30.70;87.60;;;;;;5032102;28;20204;-68
2023/09/14 08:10:51;;;;;;;3.92;1.80;;;30.80;86.70;;;;;;5030219;28;20259;-68
2023/09/14 08:13:17;;;;;;;3.42;1.80;;;30.20;88.30;;;;;;5031778;28;20230;-68
2023/09/14 08:15:43;;;;;;;1.98;1.33;;;29.80;88.60;;;;;;5032558;28;20682;-68
2023/09/14 08:18:09;;;;;;;6.22;1.63;;;29.70;87.70;;;;;;5031982;28;20299;-69
2023/09/14 08:20:42;;;;;;;3.95;1.40;;;29.60;89.10;;;;;;5030704;28;20220;-68
2023/09/14 08:23:09;;;;;;;1.92;1.23;;;29.20;89.20;;;;;;5031483;28;20208;-68
2023/09/14 08:25:37;;;;;;;3.60;1.70;;;29.30;88.30;;;;;;5031441;28;20224;-68
2023/09/14 08:28:04;;;;;;;1.80;1.17;;;29.50;89.60;;;;;;5031820;28;20184;-68
2023/09/14 08:30:29;;;;;;;2.67;1.30;;;29.20;88.90;;;;;;5031521;28;20168;-68
2023/09/14 08:32:55;;;;;;;2.08;1.00;;;29.50;89.90;;;;;;5031565;28;20783;-68
2023/09/14 08:35:23;;;;;;;3.15;1.77;;;29.80;89.30;;;;;;5031338;28;20223;-68
2023/09/14 08:37:52;;;;;;;3.40;1.13;;;30.20;88.40;;;;;;5028278;28;20752;-68
2023/09/14 08:40:18;;;;;;;1.58;1.02;;;30.30;88.40;;;;;;5030956;28;20212;-68
2023/09/14 08:42:51;;;;;;;1.73;1.10;;;30.80;87.70;;;;;;5029723;28;20223;-69
2023/09/14 08:45:37;;;;;;;2.20;1.00;;;30.30;86.20;;;;;;5031455;28;20361;-68
2023/09/14 08:48:04;;;;;;;1.92;1.10;;;30.40;86.80;;;;;;5029779;28;20204;-68
2023/09/14 08:50:32;;;;;;;4.20;1.42;;;30.20;86.30;;;;;;5030736;28;20838;-67
2023/09/14 08:52:59;;;;;;;4.13;1.17;;;30.00;87.10;;;;;;5031210;28;20614;-68
2023/09/14 08:55:30;;;;;;;2.97;1.15;;;29.30;88.50;;;;;;5030758;28;20313;-67
2023/09/14 08:57:56;;;;;;;2.83;1.40;;;29.00;90.10;;;;;;5031247;28;20188;-68
2023/09/14 09:00:28;;;;;;;2.03;1.08;;;28.70;90.90;;;;;;5030928;28;20176;-68
2023/09/14 09:02:54;;;;;;;2.33;1.40;;;28.80;90.40;;;;;;5028761;28;20211;-68
2023/09/14 09:05:21;;;;;;;5.32;1.10;;;27.90;91.20;;;;;;5030621;28;20224;-68
2023/09/14 09:07:48;;;;;;;3.83;1.00;;;27.70;92.30;;;;;;5030505;28;20287;-69
2023/09/14 09:10:29;;;;;;;2.92;1.00;;;27.30;92.40;;;;;;5029434;28;20208;-67
2023/09/14 09:12:57;;;;;;;3.03;1.17;;;27.10;92.80;;;;;;5026494;28;20176;-68
2023/09/14 09:15:26;;;;;;;1.88;1.00;;;26.50;93.70;;;;;;5030998;28;20200;-69
2023/09/14 09:18:04;;;;;;;4.32;1.00;;;26.10;94.40;;;;;;5028351;28;20600;-70
2023/09/14 09:20:30;;;;;;;8.07;2.35;;;25.50;95.10;;;;;;5030210;28;20208;-69
2023/09/14 09:23:00;;;;;;;4.10;1.70;;;25.50;95.80;;;;;;5030919;28;20576;-69
2023/09/14 09:25:29;;;;;;;1.65;0.90;;;25.80;96.00;;;;;;5028995;28;20236;-69
2023/09/14 09:27:59;;;;;;;5.78;1.30;;;26.00;95.50;;;;;;5027620;28;20177;-69
2023/09/14 09:30:35;;;;;;;2.92;0.93;;;26.30;95.20;;;;;;5030757;28;20241;-69
2023/09/14 09:33:01;;;;;;;2.67;1.10;;;26.40;95.20;;;;;;5030534;28;20208;-69
2023/09/14 09:35:29;;;;;;;4.05;1.65;;;26.30;95.30;;;;;;5030296;28;20216;-68
2023/09/14 09:37:58;;;;;;;4.63;1.00;;;26.10;95.70;;;;;;5030172;28;20346;-68
2023/09/14 09:40:25;;;;;;;1.83;0.90;;;26.00;95.10;;;;;;5028680;28;20212;-69
2023/09/14 09:42:52;;;;;;;2.65;1.40;;;25.70;96.00;;;;;;5030197;28;20591;-69
2023/09/14 09:45:23;;;;;;;3.13;1.00;;;25.50;96.30;;;;;;5030304;28;20211;-68
2023/09/14 09:50:20;;;;;;;2.45;0.95;;;26.10;95.70;;;;;;4983078;28;20300;-72
2023/09/14 09:52:47;;;;;;;4.43;1.38;;;25.70;95.80;;;;;;4988356;28;20727;-73
2023/09/14 09:55:24;;;;;;;3.53;2.17;;;25.60;96.70;;;;;;4985774;28;20658;-72
2023/09/14 09:57:51;;;;;;;2.60;1.67;;;25.60;95.20;;;;;;4984402;28;20185;-71
2023/09/14 10:00:19;;;;;;;2.35;1.30;;;25.20;94.90;;;;;;4987207;28;20201;-72
2023/09/14 10:02:46;;;;;;;5.65;1.50;;;24.60;96.30;;;;;;4989710;28;20218;-72
2023/09/14 10:05:12;;;;;;;2.90;1.70;;;24.80;97.20;;;;;;4988824;28;20245;-73
2023/09/14 10:07:42;;;;;;;2.67;1.48;;;25.00;96.70;;;;;;5004750;28;20218;-71
2023/09/14 10:10:09;;;;;;;2.47;1.25;;;25.00;96.60;;;;;;4982396;28;20659;-70
2023/09/14 10:12:40;;;;;;;2.45;1.30;;;25.00;97.10;;;;;;4982089;28;20175;-73
2023/09/14 10:15:09;;;;;;;2.30;1.00;;;25.20;97.20;;;;;;4987481;28;20656;-73
2023/09/14 10:17:35;;;;;;;1.55;1.00;;;24.80;97.00;;;;;;4984921;28;20625;-73
2023/09/14 10:20:06;;;;;;;2.53;1.25;;;25.00;97.20;;;;;;4990427;28;20836;-72
2023/09/14 10:22:32;;;;;;;3.60;1.10;;;25.20;97.50;;;;;;5005484;28;20211;-73
2023/09/14 10:24:58;;;;;;;1.25;0.77;;;25.40;97.40;;;;;;4995350;28;20173;-73
2023/09/14 10:27:29;;;;;;;2.17;1.33;;;25.20;96.00;;;;;;4996843;28;20698;-73
2023/09/14 10:29:56;;;;;;;5.43;1.48;;;24.80;96.20;;;;;;4997253;28;20220;-71
2023/09/14 10:32:22;;;;;;;5.13;1.80;;;25.00;96.90;;;;;;4994246;28;20220;-73
2023/09/14 10:34:50;;;;;;;1.83;1.15;;;24.80;95.60;;;;;;4993450;28;20578;-73
2023/09/14 10:37:18;;;;;;;2.70;1.10;;;24.40;95.70;;;;;;4990809;28;20216;-70
2023/09/14 10:39:45;;;;;;;1.95;1.00;;;24.30;96.00;;;;;;4989782;28;20194;-72
2023/09/14 10:42:11;;;;;;;4.28;1.30;;;24.70;96.40;;;;;;5008102;28;20220;-72
2023/09/14 10:44:37;;;;;;;4.07;1.17;;;25.00;96.30;;;;;;4991814;28;20225;-73
2023/09/14 10:47:04;;;;;;;1.33;0.95;;;25.30;95.70;;;;;;4989339;28;20327;-74
2023/09/14 10:49:33;;;;;;;4.03;0.95;;;25.10;94.80;;;;;;4985365;28;20222;-73
2023/09/14 10:52:00;;;;;;;2.58;1.35;;;25.20;95.70;;;;;;4988826;28;20272;-73
2023/09/14 10:54:27;;;;;;;5.28;2.78;;;25.10;95.00;;;;;;4984655;28;20200;-72
2023/09/14 10:56:57;;;;;;;7.18;3.50;;;25.30;95.60;;;;;;4993819;28;20209;-73
2023/09/14 10:59:51;;;;;;;4.97;2.33;;;25.50;95.20;;;;;;4997901;28;20305;-73
2023/09/14 11:02:45;;;;;;;5.72;2.97;;;25.50;94.60;;;;;;5010186;28;20204;-73
2023/09/14 11:05:23;;;;;;;3.50;1.80;;;26.00;94.80;;;;;;5012777;28;20331;-73
2023/09/14 11:08:00;;;;;;;2.35;1.58;;;26.10;93.80;;;;;;4991960;28;20265;-71
2023/09/14 11:10:27;;;;;;;4.60;1.35;;;26.40;93.70;;;;;;4993681;28;20621;-73
2023/09/14 11:13:19;;;;;;;3.53;1.17;;;26.50;92.80;;;;;;4991382;28;20674;-73
2023/09/14 11:15:54;;;;;;;4.35;1.67;;;26.50;92.90;;;;;;4987540;28;21028;-73
2023/09/14 11:18:32;;;;;;;3.75;1.48;;;26.80;93.80;;;;;;4989072;28;20719;-74
2023/09/14 11:20:57;;;;;;;3.35;1.27;;;26.70;94.40;;;;;;4987366;28;20217;-73
2023/09/14 11:23:35;;;;;;;4.82;1.25;;;26.30;95.30;;;;;;5004136;28;20611;-73
2023/09/14 11:26:02;;;;;;;2.35;0.98;;;25.80;95.50;;;;;;4987793;28;20213;-73
2023/09/14 11:28:29;;;;;;;3.15;1.13;;;25.40;96.20;;;;;;4985534;28;20340;-72
2023/09/14 11:30:56;;;;;;;2.53;1.10;;;25.00;96.40;;;;;;4985324;28;20301;-73
2023/09/14 11:33:22;;;;;;;3.63;1.17;;;24.60;97.40;;;;;;4990751;28;20679;-73
2023/09/14 11:35:51;;;;;;;3.65;0.98;;;24.50;97.30;;;;;;4992585;28;20211;-72
2023/09/14 11:38:20;;;;;;;2.50;1.00;;;24.30;97.50;;;;;;4995948;28;20216;-73
2023/09/14 11:40:46;;;;;;;2.17;1.35;;;24.00;97.40;;;;;;4991410;28;20253;-72
2023/09/14 11:43:28;;;;;;;5.22;2.47;;;23.80;97.30;;;;;;4993331;28;20225;-73
2023/09/14 11:45:58;;;;;;;4.07;1.40;;;24.00;97.50;;;;;;4994874;28;20205;-74
2023/09/14 11:48:29;;;;;;;4.65;1.30;;;24.10;97.20;;;;;;4992966;28;20209;-73
2023/09/14 11:50:56;;;;;;;2.00;1.02;;;24.20;97.10;;;;;;4988190;28;20207;-74
2023/09/14 11:53:22;;;;;;;2.08;1.02;;;24.30;96.80;;;;;;4987582;28;20202;-73
2023/09/14 11:55:49;;;;;;;1.77;0.95;;;24.20;96.00;;;;;;4988364;28;20210;-73
2023/09/14 11:58:15;;;;;;;2.67;1.20;;;24.00;96.10;;;;;;4989946;28;20221;-69
2023/09/14 12:00:49;;;;;;;1.75;1.20;;;24.20;95.50;;;;;;4985792;28;20252;-68
2023/09/14 12:03:15;;;;;;;3.83;0.75;;;24.10;94.80;;;;;;4987085;28;20208;-70
2023/09/14 12:05:41;;;;;;;5.03;1.58;;;24.10;94.40;;;;;;4984990;28;20304;-71
2023/09/14 12:08:14;;;;;;;1.38;0.98;;;24.20;94.70;;;;;;4985248;28;20264;-71
2023/09/14 12:10:40;;;;;;;1.95;0.90;;;24.30;95.60;;;;;;4981518;28;20209;-72
2023/09/14 12:13:14;;;;;;;0.82;0.70;;;24.50;95.50;;;;;;4990663;28;20208;-72
2023/09/14 12:15:42;;;;;;;2.47;1.30;;;24.70;95.60;;;;;;4992506;28;20181;-71
2023/09/14 12:18:10;;;;;;;2.63;1.27;;;24.70;96.10;;;;;;4984234;28;20213;-72
2023/09/14 12:20:41;;;;;;;2.35;0.98;;;24.40;95.60;;;;;;4993052;28;20233;-72
2023/09/14 12:23:09;;;;;;;1.75;1.00;;;24.10;96.00;;;;;;4989529;28;20205;-72
2023/09/14 12:25:36;;;;;;;1.88;1.10;;;23.70;95.80;;;;;;5003598;28;20223;-71
2023/09/14 12:28:04;;;;;;;1.70;1.00;;;23.90;95.70;;;;;;4990654;28;20201;-71
2023/09/14 12:30:30;;;;;;;1.77;1.25;;;23.80;95.90;;;;;;4987792;28;20180;-72
2023/09/14 12:32:57;;;;;;;1.80;1.30;;;23.80;95.10;;;;;;4987430;28;20641;-72
2023/09/14 12:35:30;;;;;;;4.38;1.65;;;23.40;96.10;;;;;;5004830;28;20206;-72
2023/09/14 12:38:03;;;;;;;3.42;1.23;;;23.30;96.50;;;;;;4986485;28;20218;-74
2023/09/14 12:40:34;;;;;;;1.70;1.08;;;23.40;97.20;;;;;;4984967;28;20288;-72
2023/09/14 12:43:02;;;;;;;2.38;1.20;;;23.10;97.40;;;;;;4999762;28;20190;-72
2023/09/14 12:45:28;;;;;;;1.88;1.02;;;23.10;98.10;;;;;;4983669;28;20254;-73
2023/09/14 12:47:54;;;;;;;2.25;1.17;;;23.10;98.00;;;;;;4982944;28;20805;-72
2023/09/14 12:50:19;;;;;;;4.07;2.75;;;23.10;98.20;;;;;;4992194;28;20584;-72
2023/09/14 12:52:47;;;;;;;3.45;1.55;;;23.00;98.60;;;;;;4993997;28;20730;-72